Time;durP1;ratioP1;P1;durP2;ratioP2;P2;SDS_P1;SDS_P2;PMS_P1;PMS_P2;Temp;Humidity;BMP_temperature;BMP_pressure;BME280_temperature;BME280_humidity;BME280_pressure;Samples;Min_cycle;Max_cycle;Signal;HPM_P1;HPM_P2
2024/01/26 00:01:00;;;;;;;;;;;5.70;83.80;;;;;;4177686;28;19932;-76
2024/01/26 00:03:19;;;;;;;;;;;5.70;83.80;;;;;;4162274;28;19923;-77
2024/01/26 00:05:39;;;;;;;;;;;5.70;83.80;;;;;;4155376;28;19971;-78
2024/01/26 00:07:58;;;;;;;;;;;5.70;83.80;;;;;;4158060;28;19975;-79
2024/01/26 00:10:17;;;;;;;;;;;5.80;83.90;;;;;;4158476;28;19928;-77
2024/01/26 00:12:37;;;;;;;;;;;5.70;83.90;;;;;;4154656;28;19928;-79
2024/01/26 00:14:56;;;;;;;;;;;5.80;83.90;;;;;;4155498;28;19963;-77
2024/01/26 00:17:15;;;;;;;;;;;5.80;83.90;;;;;;4156356;28;20851;-80
2024/01/26 00:19:34;;;;;;;;;;;5.70;84.60;;;;;;4158849;28;20441;-79
2024/01/26 00:21:54;;;;;;;;;;;5.70;84.60;;;;;;4156358;28;19944;-80
2024/01/26 00:24:13;;;;;;;;;;;5.80;83.90;;;;;;4159383;28;19979;-79
2024/01/26 00:26:32;;;;;;;;;;;5.70;83.80;;;;;;4161608;28;20028;-80
2024/01/26 00:28:51;;;;;;;;;;;5.80;83.90;;;;;;4160799;28;19974;-81
2024/01/26 00:31:18;;;;;;;;;;;5.70;83.80;;;;;;4158020;28;20373;-79
2024/01/26 00:33:37;;;;;;;;;;;5.70;83.90;;;;;;4162024;28;20044;-79
2024/01/26 00:35:56;;;;;;;;;;;5.80;83.90;;;;;;4155747;28;20071;-78
2024/01/26 00:38:15;;;;;;;;;;;5.80;84.70;;;;;;4154556;28;20111;-77
2024/01/26 00:40:34;;;;;;;;;;;5.80;84.00;;;;;;4153851;28;19947;-78
2024/01/26 00:42:53;;;;;;;;;;;5.80;84.60;;;;;;4156061;28;19927;-78
2024/01/26 00:45:13;;;;;;;;;;;5.80;83.90;;;;;;4154532;28;19935;-78
2024/01/26 00:47:33;;;;;;;;;;;5.80;83.90;;;;;;4154386;28;19979;-78
2024/01/26 00:49:52;;;;;;;;;;;5.70;83.70;;;;;;4154318;28;20039;-78
2024/01/26 00:52:13;;;;;;;;;;;5.70;83.70;;;;;;4155637;28;19935;-78
2024/01/26 00:54:32;;;;;;;;;;;5.70;83.70;;;;;;4155252;28;20325;-78
2024/01/26 00:56:51;;;;;;;;;;;5.80;83.80;;;;;;4154374;28;19931;-78
2024/01/26 00:59:11;;;;;;;;;;;5.70;83.60;;;;;;4158702;28;19928;-79
2024/01/26 01:01:30;;;;;;;;;;;5.70;83.60;;;;;;4155853;28;20288;-79
2024/01/26 01:03:49;;;;;;;;;;;5.70;84.30;;;;;;4158111;28;19959;-79
2024/01/26 01:06:08;;;;;;;;;;;5.70;83.60;;;;;;4158736;28;19928;-78
2024/01/26 01:08:28;;;;;;;;;;;5.70;84.30;;;;;;4158617;28;20001;-79
2024/01/26 01:10:47;;;;;;;;;;;5.60;83.50;;;;;;4152378;28;20486;-78
2024/01/26 01:13:10;;;;;;;;;;;5.70;83.50;;;;;;4157616;28;19920;-78
2024/01/26 01:15:29;;;;;;;;;;;5.60;83.40;;;;;;4148820;28;20294;-79
2024/01/26 01:17:48;;;;;;;;;;;5.70;83.60;;;;;;4155245;28;19931;-80
2024/01/26 01:20:11;;;;;;;;;;;5.60;84.10;;;;;;4156836;28;20006;-78
2024/01/26 01:22:30;;;;;;;;;;;5.50;83.30;;;;;;4157088;28;19928;-78
2024/01/26 01:24:49;;;;;;;;;;;5.50;83.30;;;;;;4153879;28;20290;-79
2024/01/26 01:27:08;;;;;;;;;;;5.50;83.40;;;;;;4154979;28;20006;-78
2024/01/26 01:29:28;;;;;;;;;;;5.50;83.30;;;;;;4152335;28;19928;-78
2024/01/26 01:31:47;;;;;;;;;;;5.50;83.40;;;;;;4152437;28;19927;-77
2024/01/26 01:34:06;;;;;;;;;;;5.60;84.30;;;;;;4153495;28;19986;-78
2024/01/26 01:36:26;;;;;;;;;;;5.50;83.50;;;;;;4155030;28;19928;-78
2024/01/26 01:38:45;;;;;;;;;;;5.40;83.50;;;;;;4155741;28;20373;-78
2024/01/26 01:41:05;;;;;;;;;;;5.40;83.50;;;;;;4155505;28;19966;-79
2024/01/26 01:43:24;;;;;;;;;;;5.50;83.70;;;;;;4156022;28;19983;-78
2024/01/26 01:45:43;;;;;;;;;;;5.50;83.70;;;;;;4154601;28;19931;-78
2024/01/26 01:48:03;;;;;;;;;;;5.50;83.80;;;;;;4154714;28;20501;-78
2024/01/26 01:50:22;;;;;;;;;;;5.50;84.50;;;;;;4157600;28;19928;-77
2024/01/26 01:52:42;;;;;;;;;;;5.50;83.90;;;;;;4152490;28;20557;-78
2024/01/26 01:55:01;;;;;;;;;;;5.50;83.90;;;;;;4153655;28;19967;-78
2024/01/26 01:57:23;;;;;;;;;;;5.50;83.80;;;;;;4155968;28;19955;-77
2024/01/26 01:59:42;;;;;;;;;;;5.60;84.00;;;;;;4154552;28;19927;-78
2024/01/26 02:02:01;;;;;;;;;;;5.50;83.90;;;;;;4157576;28;20510;-80
2024/01/26 02:04:21;;;;;;;;;;;5.50;84.00;;;;;;4158381;28;19959;-79
2024/01/26 02:06:40;;;;;;;;;;;5.60;83.90;;;;;;4159341;28;19974;-81
2024/01/26 02:08:59;;;;;;;;;;;5.50;83.90;;;;;;4160407;28;19963;-80
2024/01/26 02:11:19;;;;;;;;;;;5.50;83.90;;;;;;4161900;28;19967;-79
2024/01/26 02:13:38;;;;;;;;;;;5.50;83.90;;;;;;4161389;28;19928;-81
2024/01/26 02:15:57;;;;;;;;;;;5.50;83.90;;;;;;4156199;28;19944;-80
2024/01/26 02:18:16;;;;;;;;;;;5.60;84.00;;;;;;4155383;28;19956;-79
2024/01/26 02:20:36;;;;;;;;;;;5.60;84.70;;;;;;4158893;28;19951;-79
2024/01/26 02:22:55;;;;;;;;;;;5.60;84.00;;;;;;4158136;28;19931;-81
2024/01/26 02:25:14;;;;;;;;;;;5.60;84.00;;;;;;4157815;28;19928;-80
2024/01/26 02:27:34;;;;;;;;;;;5.60;84.00;;;;;;4161935;28;20012;-80
2024/01/26 02:29:53;;;;;;;;;;;5.60;84.00;;;;;;4156946;28;20010;-79
2024/01/26 02:32:12;;;;;;;;;;;5.60;84.00;;;;;;4158332;28;19928;-79
2024/01/26 02:34:31;;;;;;;;;;;5.60;84.70;;;;;;4152679;28;19928;-80
2024/01/26 02:36:51;;;;;;;;;;;5.70;84.00;;;;;;4156217;28;19975;-79
2024/01/26 02:39:11;;;;;;;;;;;5.60;84.00;;;;;;4159964;28;19993;-80
2024/01/26 02:41:31;;;;;;;;;;;5.60;84.00;;;;;;4160162;28;19970;-81
2024/01/26 02:43:50;;;;;;;;;;;5.60;84.00;;;;;;4158119;28;20021;-80
2024/01/26 02:46:10;;;;;;;;;;;5.60;84.70;;;;;;4160222;28;20535;-81
2024/01/26 02:48:29;;;;;;;;;;;5.60;84.00;;;;;;4158564;28;20028;-80
2024/01/26 02:50:48;;;;;;;;;;;5.60;84.00;;;;;;4160316;28;19928;-82
2024/01/26 02:53:07;;;;;;;;;;;5.60;84.00;;;;;;4159450;28;19983;-78
2024/01/26 02:55:26;;;;;;;;;;;5.60;84.00;;;;;;4159179;28;19952;-80
2024/01/26 02:57:46;;;;;;;;;;;5.60;84.70;;;;;;4164780;28;20020;-80
2024/01/26 03:00:07;;;;;;;;;;;5.60;84.00;;;;;;4161435;28;19975;-80
2024/01/26 03:02:26;;;;;;;;;;;5.60;84.00;;;;;;4161454;28;21109;-78
2024/01/26 03:04:45;;;;;;;;;;;5.70;84.10;;;;;;4153916;28;20282;-80
2024/01/26 03:07:04;;;;;;;;;;;5.60;84.00;;;;;;4158229;28;20967;-79
2024/01/26 03:09:24;;;;;;;;;;;5.70;84.10;;;;;;4156602;28;19928;-78
2024/01/26 03:11:43;;;;;;;;;;;5.70;84.10;;;;;;4170298;28;20283;-78
2024/01/26 03:14:02;;;;;;;;;;;5.70;84.00;;;;;;4161725;28;19983;-78
2024/01/26 03:16:21;;;;;;;;;;;5.70;84.00;;;;;;4156957;28;19928;-77
2024/01/26 03:18:41;;;;;;;;;;;5.70;84.00;;;;;;4159777;28;20248;-77
2024/01/26 03:21:00;;;;;;;;;;;5.70;84.00;;;;;;4159281;28;19936;-79
2024/01/26 03:23:20;;;;;;;;;;;5.70;84.00;;;;;;4158021;28;19927;-77
2024/01/26 03:25:39;;;;;;;;;;;5.60;84.00;;;;;;4156431;28;20323;-78
2024/01/26 03:27:59;;;;;;;;;;;5.70;84.30;;;;;;4159650;28;19928;-78
2024/01/26 03:30:18;;;;;;;;;;;5.70;84.10;;;;;;4155701;28;20337;-78
2024/01/26 03:32:38;;;;;;;;;;;5.70;84.10;;;;;;4156621;28;20026;-78
2024/01/26 03:34:58;;;;;;;;;;;5.70;84.10;;;;;;4158443;28;20386;-78
2024/01/26 03:37:17;;;;;;;;;;;5.70;84.10;;;;;;4157618;28;19932;-78
2024/01/26 03:39:36;;;;;;;;;;;5.70;84.10;;;;;;4157810;28;20144;-78
2024/01/26 03:41:55;;;;;;;;;;;5.70;84.10;;;;;;4158403;28;19975;-78
2024/01/26 03:44:15;;;;;;;;;;;5.70;84.80;;;;;;4158831;28;20016;-77
2024/01/26 03:46:34;;;;;;;;;;;5.70;84.80;;;;;;4155647;28;20192;-78
2024/01/26 03:48:53;;;;;;;;;;;5.80;84.20;;;;;;4155039;28;20290;-78
2024/01/26 03:51:12;;;;;;;;;;;5.70;84.20;;;;;;4160834;28;19952;-77
2024/01/26 03:53:32;;;;;;;;;;;5.70;84.10;;;;;;4161261;28;19932;-80
2024/01/26 03:55:54;;;;;;;;;;;5.70;84.20;;;;;;4156988;28;20322;-78
2024/01/26 03:58:14;;;;;;;;;;;5.70;84.30;;;;;;4157473;28;20022;-78
2024/01/26 04:00:34;;;;;;;;;;;5.70;84.20;;;;;;4158207;28;20238;-79
2024/01/26 04:02:53;;;;;;;;;;;5.70;84.20;;;;;;4155171;28;19963;-78
2024/01/26 04:05:13;;;;;;;;;;;5.80;84.40;;;;;;4159886;28;19970;-80
2024/01/26 04:07:32;;;;;;;;;;;5.70;84.30;;;;;;4158551;28;19932;-78
2024/01/26 04:09:51;;;;;;;;;;;5.80;84.40;;;;;;4157265;28;20449;-79
2024/01/26 04:12:10;;;;;;;;;;;5.80;84.40;;;;;;4158610;28;19945;-79
2024/01/26 04:14:30;;;;;;;;;;;5.80;84.30;;;;;;4156575;28;20086;-79
2024/01/26 04:16:49;;;;;;;;;;;5.80;84.40;;;;;;4153906;28;19963;-80
2024/01/26 04:19:08;;;;;;;;;;;5.80;85.10;;;;;;4153844;28;19953;-79
2024/01/26 04:21:27;;;;;;;;;;;5.80;84.40;;;;;;4158267;28;20196;-79
2024/01/26 04:23:47;;;;;;;;;;;5.80;84.40;;;;;;4155482;28;20006;-78
2024/01/26 04:26:06;;;;;;;;;;;5.80;85.20;;;;;;4154624;28;19966;-79
2024/01/26 04:28:26;;;;;;;;;;;5.80;84.50;;;;;;4156532;28;20329;-78
2024/01/26 04:30:45;;;;;;;;;;;5.90;85.30;;;;;;4156183;28;19967;-79
2024/01/26 04:33:05;;;;;;;;;;;5.90;84.60;;;;;;4155906;28;19943;-80
2024/01/26 04:35:24;;;;;;;;;;;5.90;84.70;;;;;;4154380;28;20090;-77
2024/01/26 04:37:43;;;;;;;;;;;5.90;84.70;;;;;;4154175;28;19931;-78
2024/01/26 04:40:03;;;;;;;;;;;5.90;84.70;;;;;;4157690;28;19967;-78
2024/01/26 04:42:22;;;;;;;;;;;6.00;84.90;;;;;;4157599;28;19924;-78
2024/01/26 04:44:41;;;;;;;;;;;6.00;84.90;;;;;;4155313;28;19928;-79
2024/01/26 04:47:00;;;;;;;;;;;6.00;84.90;;;;;;4153612;28;19931;-78
2024/01/26 04:49:19;;;;;;;;;;;6.00;85.70;;;;;;4156215;28;20355;-78
2024/01/26 04:51:39;;;;;;;;;;;6.00;85.10;;;;;;4158521;28;19927;-78
2024/01/26 04:53:58;;;;;;;;;;;6.10;85.10;;;;;;4156162;28;19923;-78
2024/01/26 04:56:19;;;;;;;;;;;6.10;85.10;;;;;;4155528;28;19967;-78
2024/01/26 04:58:38;;;;;;;;;;;6.20;85.20;;;;;;4155632;28;19951;-78
2024/01/26 05:00:58;;;;;;;;;;;6.10;85.90;;;;;;4157688;28;20436;-78
2024/01/26 05:03:17;;;;;;;;;;;6.20;85.20;;;;;;4153410;28;20013;-78
2024/01/26 05:05:36;;;;;;;;;;;6.20;85.20;;;;;;4154865;28;20398;-78
2024/01/26 05:07:55;;;;;;;;;;;6.20;85.40;;;;;;4158692;28;19959;-79
2024/01/26 05:10:15;;;;;;;;;;;6.20;85.30;;;;;;4161072;28;19955;-78
2024/01/26 05:12:36;;;;;;;;;;;6.20;85.30;;;;;;4162132;28;19975;-79
2024/01/26 05:14:55;;;;;;;;;;;6.30;85.30;;;;;;4158200;28;19928;-79
2024/01/26 05:17:14;;;;;;;;;;;6.30;85.30;;;;;;4153416;28;20345;-77
2024/01/26 05:19:34;;;;;;;;;;;6.30;85.40;;;;;;4153929;28;19951;-77
2024/01/26 05:21:53;;;;;;;;;;;6.30;85.30;;;;;;4155003;28;19979;-77
2024/01/26 05:24:12;;;;;;;;;;;6.40;85.30;;;;;;4155147;28;19920;-78
2024/01/26 05:26:31;;;;;;;;;;;6.40;86.00;;;;;;4158556;28;19987;-77
2024/01/26 05:28:51;;;;;;;;;;;6.50;85.60;;;;;;4153955;28;19950;-77
2024/01/26 05:31:10;;;;;;;;;;;6.40;85.40;;;;;;4154513;28;19948;-76
2024/01/26 05:33:30;;;;;;;;;;;6.50;85.50;;;;;;4151561;28;19919;-77
2024/01/26 05:35:49;;;;;;;;;;;6.40;85.50;;;;;;4148334;28;19928;-77
2024/01/26 05:38:08;;;;;;;;;;;6.50;86.40;;;;;;4153374;28;20030;-77
2024/01/26 05:40:28;;;;;;;;;;;6.50;85.50;;;;;;4158064;28;19947;-78
2024/01/26 05:42:47;;;;;;;;;;;6.50;85.60;;;;;;4157547;28;19928;-77
2024/01/26 05:45:08;;;;;;;;;;;6.50;85.60;;;;;;4157217;28;19928;-78
2024/01/26 05:47:27;;;;;;;;;;;6.50;85.70;;;;;;4155951;28;19928;-79
2024/01/26 05:49:47;;;;;;;;;;;6.60;85.70;;;;;;4154035;28;20900;-78
2024/01/26 05:52:06;;;;;;;;;;;6.60;85.90;;;;;;4153376;28;19955;-77
2024/01/26 05:54:25;;;;;;;;;;;6.60;86.50;;;;;;4156827;28;19967;-77
2024/01/26 05:56:44;;;;;;;;;;;6.60;85.80;;;;;;4153802;28;21349;-78
2024/01/26 05:59:03;;;;;;;;;;;6.60;85.80;;;;;;4156487;28;20040;-76
2024/01/26 06:01:22;;;;;;;;;;;6.60;85.90;;;;;;4156590;28;19968;-78
2024/01/26 06:03:42;;;;;;;;;;;6.70;86.00;;;;;;4152196;28;19983;-77
2024/01/26 06:06:02;;;;;;;;;;;6.70;85.90;;;;;;4155062;28;20014;-78
2024/01/26 06:08:21;;;;;;;;;;;6.70;86.00;;;;;;4150964;28;20014;-77
2024/01/26 06:10:40;;;;;;;;;;;6.70;86.00;;;;;;4158144;28;20020;-78
2024/01/26 06:13:00;;;;;;;;;;;6.70;86.10;;;;;;4156252;28;20007;-78
2024/01/26 06:15:19;;;;;;;;;;;6.80;86.10;;;;;;4154364;28;22188;-78
2024/01/26 06:17:39;;;;;;;;;;;6.70;86.00;;;;;;4156096;28;19983;-78
2024/01/26 06:19:58;;;;;;;;;;;6.80;86.10;;;;;;4156086;28;19974;-77
2024/01/26 06:22:17;;;;;;;;;;;6.80;86.10;;;;;;4157816;28;19928;-78
2024/01/26 06:24:36;;;;;;;;;;;6.80;86.10;;;;;;4159019;28;19975;-78
2024/01/26 06:26:55;;;;;;;;;;;6.90;86.20;;;;;;4158817;28;19971;-78
2024/01/26 06:29:14;;;;;;;;;;;6.90;86.90;;;;;;4158565;28;19976;-78
2024/01/26 06:31:34;;;;;;;;;;;6.90;86.10;;;;;;4161493;28;19978;-77
2024/01/26 06:33:53;;;;;;;;;;;6.90;86.20;;;;;;4161178;28;19944;-77
2024/01/26 06:36:12;;;;;;;;;;;6.90;86.20;;;;;;4157506;28;20451;-77
2024/01/26 06:38:32;;;;;;;;;;;6.90;86.30;;;;;;4160449;28;19936;-77
2024/01/26 06:40:51;;;;;;;;;;;6.90;86.40;;;;;;4159947;28;20424;-78
2024/01/26 06:43:12;;;;;;;;;;;6.90;86.40;;;;;;4164405;28;19928;-77
2024/01/26 06:45:31;;;;;;;;;;;7.00;86.40;;;;;;4161891;28;19928;-77
2024/01/26 06:47:50;;;;;;;;;;;7.00;86.40;;;;;;4164932;28;20010;-78
2024/01/26 06:50:09;;;;;;;;;;;7.00;87.20;;;;;;4161925;28;19928;-78
2024/01/26 06:52:29;;;;;;;;;;;7.00;86.50;;;;;;4160405;28;19974;-78
2024/01/26 06:54:48;;;;;;;;;;;7.00;87.20;;;;;;4157953;28;19928;-79
2024/01/26 06:57:07;;;;;;;;;;;7.00;86.60;;;;;;4155990;28;19947;-78
2024/01/26 06:59:26;;;;;;;;;;;7.00;86.60;;;;;;4155506;28;19989;-78
2024/01/26 07:01:45;;;;;;;;;;;7.10;86.60;;;;;;4159076;28;19975;-77
2024/01/26 07:04:05;;;;;;;;;;;7.10;86.80;;;;;;4160559;28;19927;-78
2024/01/26 07:06:24;;;;;;;;;;;7.10;86.60;;;;;;4157273;28;20013;-78
2024/01/26 07:08:43;;;;;;;;;;;7.10;86.70;;;;;;4161897;28;19964;-78
2024/01/26 07:11:03;;;;;;;;;;;7.20;86.70;;;;;;4161296;28;20057;-77
2024/01/26 07:13:22;;;;;;;;;;;7.20;86.80;;;;;;4159925;28;19987;-77
2024/01/26 07:15:41;;;;;;;;;;;7.20;87.50;;;;;;4162311;28;19986;-78
2024/01/26 07:18:01;;;;;;;;;;;7.30;87.50;;;;;;4160117;28;19987;-77
2024/01/26 07:20:21;;;;;;;;;;;7.20;86.70;;;;;;4172067;28;20309;-77
2024/01/26 07:22:39;;;;;;;;;;;7.20;87.50;;;;;;4171313;28;19955;-78
2024/01/26 07:24:59;;;;;;;;;;;7.30;86.80;;;;;;4174007;28;19935;-77
2024/01/26 07:27:18;;;;;;;;;;;7.30;87.30;;;;;;4163230;28;19971;-77
2024/01/26 07:29:37;;;;;;;;;;;7.30;87.00;;;;;;4161230;28;20357;-78
2024/01/26 07:31:57;;;;;;;;;;;7.30;86.90;;;;;;4161129;28;19929;-79
2024/01/26 07:34:16;;;;;;;;;;;7.20;86.90;;;;;;4160362;28;19927;-77
2024/01/26 07:36:36;;;;;;;;;;;7.30;87.00;;;;;;4159383;28;19928;-77
2024/01/26 07:38:56;;;;;;;;;;;7.40;87.00;;;;;;4160258;28;20558;-78
2024/01/26 07:41:15;;;;;;;;;;;7.30;87.10;;;;;;4156443;28;20374;-78
2024/01/26 07:43:34;;;;;;;;;;;7.40;87.20;;;;;;4172188;28;20853;-78
2024/01/26 07:45:54;;;;;;;;;;;7.40;87.10;;;;;;4157411;28;20860;-77
2024/01/26 07:48:13;;;;;;;;;;;7.40;87.90;;;;;;4159457;28;19936;-77
2024/01/26 07:50:32;;;;;;;;;;;7.60;87.30;;;;;;4159392;28;19943;-78
2024/01/26 07:52:51;;;;;;;;;;;7.50;87.30;;;;;;4159628;28;20258;-77
2024/01/26 07:55:10;;;;;;;;;;;7.50;87.20;;;;;;4159096;28;19928;-76
2024/01/26 07:57:30;;;;;;;;;;;7.50;87.40;;;;;;4155812;28;19967;-77
2024/01/26 07:59:49;;;;;;;;;;;7.50;87.40;;;;;;4155274;28;20468;-77
2024/01/26 08:02:08;;;;;;;;;;;7.60;87.50;;;;;;4159738;28;20003;-77
2024/01/26 08:04:28;;;;;;;;;;;7.60;87.60;;;;;;4156017;28;20424;-76
2024/01/26 08:06:47;;;;;;;;;;;7.70;87.60;;;;;;4158881;28;19928;-77
2024/01/26 08:09:10;;;;;;;;;;;7.60;87.40;;;;;;4163034;28;19929;-77
2024/01/26 08:11:29;;;;;;;;;;;7.60;87.50;;;;;;4160184;28;19948;-78
2024/01/26 08:13:49;;;;;;;;;;;7.60;87.50;;;;;;4158560;28;19932;-77
2024/01/26 08:16:13;;;;;;;;;;;7.70;88.30;;;;;;4152032;28;20008;-76
2024/01/26 08:18:32;;;;;;;;;;;7.70;87.70;;;;;;4153937;28;20020;-77
2024/01/26 08:20:51;;;;;;;;;;;7.60;87.50;;;;;;4153468;28;19929;-77
2024/01/26 08:23:10;;;;;;;;;;;7.70;87.50;;;;;;4157158;28;20082;-77
2024/01/26 08:25:29;;;;;;;;;;;7.70;87.50;;;;;;4156452;28;19995;-76
2024/01/26 08:27:49;;;;;;;;;;;7.70;87.70;;;;;;4158316;28;20286;-78
2024/01/26 08:30:09;;;;;;;;;;;7.80;88.50;;;;;;4156345;28;20183;-78
2024/01/26 08:32:28;;;;;;;;;;;7.80;87.70;;;;;;4157260;28;19970;-77
2024/01/26 08:34:47;;;;;;;;;;;7.80;87.80;;;;;;4157158;28;19982;-78
2024/01/26 08:37:07;;;;;;;;;;;7.80;87.70;;;;;;4156475;28;19991;-76
2024/01/26 08:39:27;;;;;;;;;;;7.80;87.70;;;;;;4156168;28;20294;-77
2024/01/26 08:41:47;;;;;;;;;;;7.80;87.90;;;;;;4155449;28;20012;-78
2024/01/26 08:44:06;;;;;;;;;;;7.90;88.60;;;;;;4158715;28;19928;-78
2024/01/26 08:46:25;;;;;;;;;;;7.90;88.60;;;;;;4154758;28;20069;-77
2024/01/26 08:48:45;;;;;;;;;;;7.90;88.70;;;;;;4156699;28;19939;-78
2024/01/26 08:51:04;;;;;;;;;;;7.90;88.10;;;;;;4156739;28;19932;-77
2024/01/26 08:53:23;;;;;;;;;;;7.90;87.90;;;;;;4157328;28;19928;-76
2024/01/26 08:55:43;;;;;;;;;;;8.00;88.10;;;;;;4158626;28;20019;-77
2024/01/26 08:58:02;;;;;;;;;;;8.00;88.10;;;;;;4155607;28;20428;-78
2024/01/26 09:00:21;;;;;;;;;;;8.00;88.80;;;;;;4158133;28;19947;-77
2024/01/26 09:02:40;;;;;;;;;;;8.10;88.10;;;;;;4158175;28;19927;-77
2024/01/26 09:04:59;;;;;;;;;;;8.10;88.50;;;;;;4157326;28;20396;-77
2024/01/26 09:07:21;;;;;;;;;;;8.10;88.40;;;;;;4153101;28;20016;-77
2024/01/26 09:09:40;;;;;;;;;;;8.20;88.20;;;;;;4157986;28;19929;-78
2024/01/26 09:12:00;;;;;;;;;;;8.10;88.10;;;;;;4160125;28;19933;-77
2024/01/26 09:14:19;;;;;;;;;;;8.10;89.00;;;;;;4159042;28;19931;-77
2024/01/26 09:16:38;;;;;;;;;;;8.20;88.60;;;;;;4154272;28;19927;-77
2024/01/26 09:18:58;;;;;;;;;;;8.20;88.50;;;;;;4153901;28;19936;-77
2024/01/26 09:21:18;;;;;;;;;;;8.20;88.40;;;;;;4154526;28;19923;-75
2024/01/26 09:23:37;;;;;;;;;;;8.30;89.10;;;;;;4150853;28;19928;-76
2024/01/26 09:25:58;;;;;;;;;;;8.30;88.70;;;;;;4152710;28;21219;-75
2024/01/26 09:28:17;;;;;;;;;;;8.30;88.80;;;;;;4153266;28;19943;-77
2024/01/26 09:30:37;;;;;;;;;;;8.40;88.90;;;;;;4151006;28;19971;-76
2024/01/26 09:32:56;;;;;;;;;;;8.40;88.70;;;;;;4151746;28;19924;-76
2024/01/26 09:35:16;;;;;;;;;;;8.50;88.90;;;;;;4152172;28;20310;-76
2024/01/26 09:37:35;;;;;;;;;;;8.50;89.40;;;;;;4152812;28;19939;-77
2024/01/26 09:39:54;;;;;;;;;;;8.50;88.70;;;;;;4152717;28;20010;-76
2024/01/26 09:42:13;;;;;;;;;;;8.50;88.70;;;;;;4150577;28;19971;-77
2024/01/26 09:44:33;;;;;;;;;;;8.60;89.00;;;;;;4155106;28;19990;-77
2024/01/26 09:46:52;;;;;;;;;;;8.60;89.00;;;;;;4152148;28;19928;-76
2024/01/26 09:49:12;;;;;;;;;;;8.60;88.90;;;;;;4149102;28;19932;-76
2024/01/26 09:51:31;;;;;;;;;;;8.60;88.80;;;;;;4153462;28;20047;-77
2024/01/26 09:53:53;;;;;;;;;;;8.60;89.00;;;;;;4153626;28;20075;-76
2024/01/26 09:56:13;;;;;;;;;;;8.60;89.30;;;;;;4151551;28;19924;-76
2024/01/26 09:58:32;;;;;;;;;;;8.70;89.30;;;;;;4151580;28;20028;-76
2024/01/26 10:00:54;;;;;;;;;;;8.70;90.00;;;;;;4153842;28;19952;-76
2024/01/26 10:03:13;;;;;;;;;;;8.70;89.80;;;;;;4153010;28;19928;-77
2024/01/26 10:05:33;;;;;;;;;;;8.70;89.90;;;;;;4150841;28;20023;-76
2024/01/26 10:07:52;;;;;;;;;;;8.90;90.00;;;;;;4152894;28;20067;-77
2024/01/26 10:10:12;;;;;;;;;;;8.90;90.00;;;;;;4151779;28;20123;-77
2024/01/26 10:12:31;;;;;;;;;;;9.00;90.00;;;;;;4153357;28;20060;-76
2024/01/26 10:15:00;;;;;;;;;;;9.00;90.40;;;;;;4153348;28;20952;-77
2024/01/26 10:17:19;;;;;;;;;;;9.00;90.10;;;;;;4154060;28;19967;-77
2024/01/26 10:19:39;;;;;;;;;;;9.00;90.20;;;;;;4153240;28;20470;-78
2024/01/26 10:21:59;;;;;;;;;;;9.10;90.20;;;;;;4154139;28;19979;-77
2024/01/26 10:24:23;;;;;;;;;;;9.10;90.50;;;;;;4154316;28;19919;-77
2024/01/26 10:26:43;;;;;;;;;;;9.10;90.20;;;;;;4153746;28;19928;-78
2024/01/26 10:29:02;;;;;;;;;;;9.20;90.50;;;;;;4152678;28;19928;-76
2024/01/26 10:31:21;;;;;;;;;;;9.20;90.10;;;;;;4153981;28;20575;-76
2024/01/26 10:33:44;;;;;;;;;;;9.20;90.10;;;;;;4153410;28;20056;-77
2024/01/26 10:36:05;;;;;;;;;;;9.20;90.00;;;;;;4155455;28;19931;-77
2024/01/26 10:38:24;;;;;;;;;;;9.20;90.00;;;;;;4153197;28;19932;-77
2024/01/26 10:40:44;;;;;;;;;;;9.20;89.80;;;;;;4153497;28;19990;-77
2024/01/26 10:43:03;;;;;;;;;;;9.30;89.80;;;;;;4150804;28;20015;-77
2024/01/26 10:45:22;;;;;;;;;;;9.30;89.70;;;;;;4150657;28;20605;-76
2024/01/26 10:47:42;;;;;;;;;;;9.20;89.50;;;;;;4153481;28;19952;-77
2024/01/26 10:50:04;;;;;;;;;;;9.20;89.50;;;;;;4149826;28;19943;-77
2024/01/26 10:52:24;;;;;;;;;;;9.30;89.50;;;;;;4155443;28;20401;-76
2024/01/26 10:54:44;;;;;;;;;;;9.20;89.30;;;;;;4152823;28;19975;-77
2024/01/26 10:57:04;;;;;;;;;;;9.30;89.20;;;;;;4155503;28;19951;-77
2024/01/26 10:59:25;;;;;;;;;;;9.20;89.20;;;;;;4154519;28;20398;-76
2024/01/26 11:01:44;;;;;;;;;;;9.10;89.70;;;;;;4153345;28;19939;-78
2024/01/26 11:04:03;;;;;;;;;;;9.30;89.00;;;;;;4150837;28;19968;-76
2024/01/26 11:06:23;;;;;;;;;;;9.10;89.50;;;;;;4149873;28;19932;-78
2024/01/26 11:08:42;;;;;;;;;;;9.20;89.60;;;;;;4155729;28;20016;-78
2024/01/26 11:11:01;;;;;;;;;;;9.10;88.80;;;;;;4155198;28;19962;-78
2024/01/26 11:13:22;;;;;;;;;;;9.20;88.70;;;;;;4155176;28;19936;-77
2024/01/26 11:15:43;;;;;;;;;;;9.10;88.50;;;;;;4156167;28;20615;-77
2024/01/26 11:18:03;;;;;;;;;;;9.10;88.40;;;;;;4157286;28;19931;-78
2024/01/26 11:20:29;;;;;;;;;;;9.00;88.20;;;;;;4158822;28;20150;-76
2024/01/26 11:23:06;;;;;;;;;;;9.00;87.90;;;;;;4159108;28;20453;-76
2024/01/26 11:25:25;;;;;;;;;;;9.00;88.10;;;;;;4154553;28;20021;-78
2024/01/26 11:27:44;;;;;;;;;;;9.00;88.00;;;;;;4154667;28;19943;-76
2024/01/26 11:30:05;;;;;;;;;;;8.90;87.90;;;;;;4155178;28;19928;-78
2024/01/26 11:32:24;;;;;;;;;;;8.90;88.60;;;;;;4154668;28;20096;-76
2024/01/26 11:34:44;;;;;;;;;;;8.90;87.80;;;;;;4155197;28;19932;-78
2024/01/26 11:37:11;;;;;;;;;;;9.00;87.80;;;;;;4159037;28;19928;-76
2024/01/26 11:39:32;;;;;;;;;;;8.90;87.70;;;;;;4157505;28;20603;-77
2024/01/26 11:41:51;;;;;;;;;;;8.90;88.50;;;;;;4157967;28;19928;-78
2024/01/26 11:44:17;;;;;;;;;;;8.90;87.80;;;;;;4157901;28;20042;-77
2024/01/26 11:46:38;;;;;;;;;;;8.90;87.70;;;;;;4153953;28;19944;-76
2024/01/26 11:48:57;;;;;;;;;;;8.90;87.60;;;;;;4153529;28;20110;-79
2024/01/26 11:51:17;;;;;;;;;;;8.90;87.50;;;;;;4155022;28;19923;-76
2024/01/26 11:53:36;;;;;;;;;;;8.90;87.30;;;;;;4156442;28;20464;-77
2024/01/26 11:55:57;;;;;;;;;;;8.80;87.10;;;;;;4153200;28;19951;-75
2024/01/26 11:58:16;;;;;;;;;;;8.70;86.70;;;;;;4151887;28;20561;-77
2024/01/26 12:00:35;;;;;;;;;;;8.80;86.50;;;;;;4156000;28;19928;-77
2024/01/26 12:02:55;;;;;;;;;;;8.70;86.10;;;;;;4153257;28;20483;-78
2024/01/26 12:05:18;;;;;;;;;;;8.80;85.70;;;;;;4156651;28;19923;-78
2024/01/26 12:07:38;;;;;;;;;;;8.60;85.10;;;;;;4155929;28;19974;-79
2024/01/26 12:09:58;;;;;;;;;;;8.60;84.90;;;;;;4156371;28;20049;-79
2024/01/26 12:12:17;;;;;;;;;;;8.50;84.70;;;;;;4158059;28;19928;-79
2024/01/26 12:14:37;;;;;;;;;;;8.60;84.60;;;;;;4155594;28;19983;-77
2024/01/26 12:16:56;;;;;;;;;;;8.40;83.90;;;;;;4157505;28;19944;-80
2024/01/26 12:19:15;;;;;;;;;;;8.50;84.00;;;;;;4154958;28;20198;-79
2024/01/26 12:21:34;;;;;;;;;;;8.30;83.20;;;;;;4158251;28;19923;-79
2024/01/26 12:23:53;;;;;;;;;;;8.40;83.40;;;;;;4159056;28;19928;-80
2024/01/26 12:26:14;;;;;;;;;;;8.20;82.70;;;;;;4156434;28;20047;-79
2024/01/26 12:28:34;;;;;;;;;;;8.20;82.60;;;;;;4156326;28;19924;-78
2024/01/26 12:30:53;;;;;;;;;;;8.20;82.90;;;;;;4155925;28;19958;-78
2024/01/26 12:33:12;;;;;;;;;;;8.20;82.90;;;;;;4158105;28;19931;-77
2024/01/26 12:35:35;;;;;;;;;;;8.20;82.90;;;;;;4161092;28;20482;-78
2024/01/26 12:37:54;;;;;;;;;;;8.30;83.00;;;;;;4164069;28;20302;-80
2024/01/26 12:40:13;;;;;;;;;;;8.10;83.10;;;;;;4163893;28;19936;-78
2024/01/26 12:42:33;;;;;;;;;;;8.10;82.90;;;;;;4165151;28;19923;-79
2024/01/26 12:44:54;;;;;;;;;;;8.00;82.70;;;;;;4163610;28;20355;-79
2024/01/26 12:47:13;;;;;;;;;;;8.00;83.50;;;;;;4163959;28;19927;-78
2024/01/26 12:49:33;;;;;;;;;;;8.10;82.80;;;;;;4160256;28;19971;-79
2024/01/26 12:51:53;;;;;;;;;;;7.90;82.70;;;;;;4164330;28;20031;-78
2024/01/26 12:54:13;;;;;;;;;;;7.90;82.90;;;;;;4159490;28;19928;-79
2024/01/26 12:56:33;;;;;;;;;;;7.80;83.40;;;;;;4161471;28;20389;-78
2024/01/26 12:58:52;;;;;;;;;;;7.90;83.80;;;;;;4162394;28;19970;-76
2024/01/26 13:01:13;;;;;;;;;;;7.80;83.20;;;;;;4159181;28;19924;-76
2024/01/26 13:03:32;;;;;;;;;;;7.90;84.10;;;;;;4159710;28;19936;-77
2024/01/26 13:05:52;;;;;;;;;;;7.80;83.40;;;;;;4159507;28;20032;-76
2024/01/26 13:08:11;;;;;;;;;;;7.80;83.50;;;;;;4158174;28;19991;-78
2024/01/26 13:10:30;;;;;;;;;;;7.80;83.70;;;;;;4161771;28;19928;-77
2024/01/26 13:12:49;;;;;;;;;;;7.70;84.20;;;;;;4163105;28;19986;-75
2024/01/26 13:15:09;;;;;;;;;;;7.80;83.90;;;;;;4161864;28;19943;-79
2024/01/26 13:17:28;;;;;;;;;;;7.70;83.80;;;;;;4160993;28;19994;-76
2024/01/26 13:19:48;;;;;;;;;;;7.60;83.70;;;;;;4162517;28;20020;-76
2024/01/26 13:22:07;;;;;;;;;;;7.40;83.00;;;;;;4161564;28;19942;-77
2024/01/26 13:24:27;;;;;;;;;;;7.30;82.60;;;;;;4159957;28;19932;-77
2024/01/26 13:26:46;;;;;;;;;;;7.20;82.90;;;;;;4163897;28;19931;-76
2024/01/26 13:29:05;;;;;;;;;;;7.10;82.90;;;;;;4160113;28;20015;-76
2024/01/26 13:31:24;;;;;;;;;;;7.00;82.10;;;;;;4163380;28;19927;-76
2024/01/26 13:33:44;;;;;;;;;;;6.90;82.50;;;;;;4162241;28;20002;-78
2024/01/26 13:36:04;;;;;;;;;;;6.80;82.80;;;;;;4161324;28;19928;-76
2024/01/26 13:38:27;;;;;;;;;;;6.60;83.00;;;;;;4163584;28;19995;-77
2024/01/26 13:40:50;;;;;;;;;;;6.60;82.90;;;;;;4162811;28;19959;-77
2024/01/26 13:43:09;;;;;;;;;;;6.50;83.60;;;;;;4162696;28;19967;-77
2024/01/26 13:45:28;;;;;;;;;;;6.40;83.10;;;;;;4162972;28;19971;-76